Time;durP1;ratioP1;P1;durP2;ratioP2;P2;SDS_P1;SDS_P2;PMS_P1;PMS_P2;Temp;Humidity;BMP_temperature;BMP_pressure;BME280_temperature;BME280_humidity;BME280_pressure;Samples;Min_cycle;Max_cycle;Signal;HPM_P1;HPM_P2
2022/07/05 00:00:25;;;;;;;;;;;27.10;90.50;;;;;;5062038;28;19920;-51
2022/07/05 00:02:52;;;;;;;;;;;27.10;90.50;;;;;;5050680;28;19929;-53
2022/07/05 00:05:19;;;;;;;;;;;27.10;90.50;;;;;;5051024;28;19927;-55
2022/07/05 00:07:46;;;;;;;;;;;27.10;90.50;;;;;;5051527;28;19924;-55
2022/07/05 00:10:13;;;;;;;;;;;27.10;90.50;;;;;;5050750;28;19928;-55
2022/07/05 00:12:40;;;;;;;;;;;27.10;90.50;;;;;;5055286;28;20361;-55
2022/07/05 00:15:08;;;;;;;;;;;27.10;90.50;;;;;;5055692;28;19931;-51
2022/07/05 00:17:35;;;;;;;;;;;27.10;90.50;;;;;;5050164;28;19924;-53
2022/07/05 00:20:03;;;;;;;;;;;27.10;90.50;;;;;;5049592;28;19936;-52
2022/07/05 00:22:30;;;;;;;;;;;27.10;90.50;;;;;;5051100;28;20352;-57
2022/07/05 00:24:57;;;;;;;;;;;27.10;90.50;;;;;;5049517;28;19921;-51
2022/07/05 00:27:24;;;;;;;;;;;27.10;90.50;;;;;;5051113;28;19931;-52
2022/07/05 00:29:51;;;;;;;;;;;27.10;90.50;;;;;;5049396;28;19948;-52
2022/07/05 00:32:18;;;;;;;;;;;27.10;90.50;;;;;;5055251;28;19921;-55
2022/07/05 00:34:45;;;;;;;;;;;27.10;90.50;;;;;;5062918;28;19921;-53
2022/07/05 00:37:13;;;;;;;;;;;27.00;90.50;;;;;;5065242;28;19931;-55
2022/07/05 00:39:40;;;;;;;;;;;27.00;90.50;;;;;;5056404;28;19920;-53
2022/07/05 00:42:08;;;;;;;;;;;27.00;90.50;;;;;;5069543;28;20403;-53
2022/07/05 00:44:37;;;;;;;;;;;27.00;90.50;;;;;;5049104;28;19931;-53
2022/07/05 00:47:05;;;;;;;;;;;27.00;90.50;;;;;;5050549;28;19921;-52
2022/07/05 00:49:33;;;;;;;;;;;27.00;90.50;;;;;;5049067;28;19935;-53
2022/07/05 00:52:01;;;;;;;;;;;27.00;90.50;;;;;;5049712;28;19921;-54
2022/07/05 00:54:46;;;;;;;;;;;27.00;90.50;;;;;;5049262;28;20307;-51
2022/07/05 00:57:14;;;;;;;;;;;27.00;90.50;;;;;;5049506;28;19924;-56
2022/07/05 00:59:41;;;;;;;;;;;27.00;90.60;;;;;;5055924;28;20168;-55
2022/07/05 01:02:08;;;;;;;;;;;27.00;90.60;;;;;;5064620;28;19924;-51
2022/07/05 01:04:35;;;;;;;;;;;27.00;90.50;;;;;;5054309;28;20016;-50
2022/07/05 01:07:03;;;;;;;;;;;27.00;90.60;;;;;;5048779;28;20308;-52
2022/07/05 01:09:32;;;;;;;;;;;27.00;90.60;;;;;;5049602;28;20320;-55
2022/07/05 01:12:00;;;;;;;;;;;27.00;90.60;;;;;;5055629;28;19933;-50
2022/07/05 01:14:27;;;;;;;;;;;27.00;90.60;;;;;;5057600;28;19920;-56
2022/07/05 01:16:55;;;;;;;;;;;26.90;90.60;;;;;;5056143;28;20375;-55
2022/07/05 01:19:24;;;;;;;;;;;26.90;90.50;;;;;;5054963;28;19925;-57
2022/07/05 01:21:51;;;;;;;;;;;27.00;90.60;;;;;;5063758;28;19924;-58
2022/07/05 01:24:18;;;;;;;;;;;26.90;90.50;;;;;;5059416;28;19921;-57
2022/07/05 01:26:46;;;;;;;;;;;26.90;90.50;;;;;;5050225;28;19943;-55
2022/07/05 01:29:14;;;;;;;;;;;26.90;90.60;;;;;;5053899;28;19925;-53
2022/07/05 01:31:42;;;;;;;;;;;26.90;90.60;;;;;;5048549;28;19924;-54
2022/07/05 01:34:09;;;;;;;;;;;26.90;90.60;;;;;;5059451;28;20395;-56
2022/07/05 01:36:37;;;;;;;;;;;26.90;90.60;;;;;;5056543;28;20407;-53
2022/07/05 01:39:06;;;;;;;;;;;26.90;90.50;;;;;;5049289;28;20331;-56
2022/07/05 01:41:33;;;;;;;;;;;26.90;90.60;;;;;;5056199;28;19928;-56
2022/07/05 01:44:00;;;;;;;;;;;26.90;90.60;;;;;;5051388;28;20388;-59
2022/07/05 01:46:33;;;;;;;;;;;26.90;90.60;;;;;;5057081;28;19921;-54
2022/07/05 01:49:03;;;;;;;;;;;26.90;90.60;;;;;;5047956;28;20337;-56
2022/07/05 01:51:37;;;;;;;;;;;26.90;90.60;;;;;;5049532;28;19920;-57
2022/07/05 01:54:05;;;;;;;;;;;26.90;90.60;;;;;;5047625;28;19931;-57
2022/07/05 01:56:33;;;;;;;;;;;26.90;90.60;;;;;;5046853;28;19924;-56
2022/07/05 01:59:00;;;;;;;;;;;26.90;90.60;;;;;;5047938;28;19920;-55
2022/07/05 02:01:38;;;;;;;;;;;26.90;90.60;;;;;;5047250;28;19943;-55
2022/07/05 02:04:08;;;;;;;;;;;26.90;90.60;;;;;;5047358;28;19925;-55
2022/07/05 02:06:36;;;;;;;;;;;26.90;90.60;;;;;;5054613;28;19925;-53
2022/07/05 02:09:05;;;;;;;;;;;26.80;90.60;;;;;;5063116;28;20319;-53
2022/07/05 02:11:33;;;;;;;;;;;26.90;90.60;;;;;;5048298;28;19924;-54
2022/07/05 02:14:01;;;;;;;;;;;26.90;90.60;;;;;;5071225;28;19931;-54
2022/07/05 02:16:33;;;;;;;;;;;26.90;90.60;;;;;;5046576;28;20152;-53
2022/07/05 02:19:00;;;;;;;;;;;26.80;90.60;;;;;;5047954;28;19921;-55
2022/07/05 02:21:30;;;;;;;;;;;26.80;90.60;;;;;;5059713;28;19920;-53
2022/07/05 02:23:58;;;;;;;;;;;26.80;90.60;;;;;;5048841;28;19921;-55
2022/07/05 02:26:29;;;;;;;;;;;26.80;90.90;;;;;;5052276;28;19939;-54
2022/07/05 02:28:58;;;;;;;;;;;26.80;90.60;;;;;;5045953;28;20288;-54
2022/07/05 02:31:25;;;;;;;;;;;26.80;90.60;;;;;;5046339;28;19928;-52
2022/07/05 02:33:55;;;;;;;;;;;26.80;90.60;;;;;;5053044;28;19920;-55
2022/07/05 02:36:24;;;;;;;;;;;26.80;90.60;;;;;;5076277;28;19928;-58
2022/07/05 02:38:51;;;;;;;;;;;26.80;90.60;;;;;;5045060;28;19924;-54
2022/07/05 02:41:18;;;;;;;;;;;26.80;90.60;;;;;;5051344;28;20285;-56
2022/07/05 02:43:49;;;;;;;;;;;26.80;90.60;;;;;;5055241;28;19920;-54
2022/07/05 02:46:19;;;;;;;;;;;26.80;90.60;;;;;;5046209;28;19920;-52
2022/07/05 02:48:46;;;;;;;;;;;26.80;90.60;;;;;;5050097;28;19925;-55
2022/07/05 02:51:16;;;;;;;;;;;26.80;90.60;;;;;;5064820;28;20364;-51
2022/07/05 02:53:45;;;;;;;;;;;26.80;90.60;;;;;;5045325;28;19920;-53
2022/07/05 02:56:14;;;;;;;;;;;26.80;90.60;;;;;;5049830;28;19929;-54
2022/07/05 02:58:41;;;;;;;;;;;26.70;90.60;;;;;;5048217;28;20385;-54
2022/07/05 03:01:09;;;;;;;;;;;26.80;90.60;;;;;;5054618;28;19928;-55
2022/07/05 03:03:38;;;;;;;;;;;26.70;90.60;;;;;;5065769;28;20402;-54
2022/07/05 03:06:07;;;;;;;;;;;26.70;90.60;;;;;;5068580;28;19924;-54
2022/07/05 03:08:35;;;;;;;;;;;26.70;90.60;;;;;;5049816;28;20284;-54
2022/07/05 03:11:03;;;;;;;;;;;26.70;90.60;;;;;;5072266;28;20307;-55
2022/07/05 03:13:32;;;;;;;;;;;26.70;90.60;;;;;;5057411;28;19925;-58
2022/07/05 03:15:59;;;;;;;;;;;26.70;90.60;;;;;;5069281;28;20280;-55
2022/07/05 03:18:27;;;;;;;;;;;26.70;90.70;;;;;;5050791;28;19921;-57
2022/07/05 03:20:55;;;;;;;;;;;26.70;90.70;;;;;;5049220;28;20395;-54
2022/07/05 03:23:25;;;;;;;;;;;26.70;90.70;;;;;;5061747;28;19928;-55
2022/07/05 03:25:56;;;;;;;;;;;26.70;90.70;;;;;;5061879;28;19924;-54
2022/07/05 03:28:23;;;;;;;;;;;26.70;90.70;;;;;;5062618;28;19925;-52
2022/07/05 03:30:53;;;;;;;;;;;26.70;90.70;;;;;;5059864;28;19924;-56
2022/07/05 03:33:21;;;;;;;;;;;26.70;90.70;;;;;;5068755;28;19924;-55
2022/07/05 03:35:55;;;;;;;;;;;26.70;90.70;;;;;;5065213;28;20351;-55
2022/07/05 03:38:24;;;;;;;;;;;26.70;90.70;;;;;;5048147;28;19924;-57
2022/07/05 03:40:52;;;;;;;;;;;26.60;90.70;;;;;;5049839;28;20316;-54
2022/07/05 03:43:19;;;;;;;;;;;26.70;90.70;;;;;;5062022;28;19930;-50
2022/07/05 03:45:47;;;;;;;;;;;26.70;90.70;;;;;;5059495;28;19924;-53
2022/07/05 03:48:14;;;;;;;;;;;26.60;90.70;;;;;;5050177;28;19928;-55
2022/07/05 03:51:01;;;;;;;;;;;26.60;90.70;;;;;;5064789;28;20315;-56
2022/07/05 03:53:28;;;;;;;;;;;26.70;90.70;;;;;;5049857;28;20388;-51
2022/07/05 03:55:55;;;;;;;;;;;26.60;90.70;;;;;;5051175;28;19928;-55
2022/07/05 03:58:23;;;;;;;;;;;26.60;90.70;;;;;;5073421;28;19932;-54
2022/07/05 04:00:51;;;;;;;;;;;26.60;90.70;;;;;;5050924;28;20417;-57
2022/07/05 04:03:21;;;;;;;;;;;26.70;90.70;;;;;;5064325;28;20288;-57
2022/07/05 04:05:51;;;;;;;;;;;26.60;90.70;;;;;;5056378;28;20363;-57
2022/07/05 04:08:18;;;;;;;;;;;26.60;90.70;;;;;;5066694;28;19928;-53
2022/07/05 04:10:47;;;;;;;;;;;26.60;90.70;;;;;;5050896;28;19924;-54
2022/07/05 04:13:17;;;;;;;;;;;26.60;90.70;;;;;;5062235;28;19924;-53
2022/07/05 04:15:45;;;;;;;;;;;26.60;90.70;;;;;;5050679;28;19921;-52
2022/07/05 04:18:12;;;;;;;;;;;26.60;90.70;;;;;;5050109;28;19927;-53
2022/07/05 04:20:42;;;;;;;;;;;26.60;90.70;;;;;;5049944;28;20308;-53
2022/07/05 04:23:11;;;;;;;;;;;26.60;90.70;;;;;;5073284;28;19924;-54
2022/07/05 04:25:38;;;;;;;;;;;26.60;90.70;;;;;;5059322;28;19925;-55
2022/07/05 04:28:20;;;;;;;;;;;26.60;90.70;;;;;;5062471;28;19971;-52
2022/07/05 04:30:50;;;;;;;;;;;26.60;90.70;;;;;;5070514;28;20323;-51
2022/07/05 04:33:20;;;;;;;;;;;26.60;90.70;;;;;;5052135;28;19931;-57
2022/07/05 04:35:50;;;;;;;;;;;26.60;90.70;;;;;;5069908;28;19944;-54
2022/07/05 04:38:17;;;;;;;;;;;26.60;90.70;;;;;;5051661;28;19924;-54
2022/07/05 04:40:46;;;;;;;;;;;26.60;90.70;;;;;;5067481;28;20034;-49
2022/07/05 04:43:14;;;;;;;;;;;26.60;90.70;;;;;;5048677;28;19932;-52
2022/07/05 04:45:42;;;;;;;;;;;26.60;90.70;;;;;;5050307;28;19925;-54
2022/07/05 04:48:09;;;;;;;;;;;26.60;90.70;;;;;;5061225;28;19925;-53
2022/07/05 04:50:38;;;;;;;;;;;26.60;90.70;;;;;;5061895;28;19932;-56
2022/07/05 04:53:06;;;;;;;;;;;26.60;90.70;;;;;;5047613;28;19928;-51
2022/07/05 04:55:33;;;;;;;;;;;26.60;90.70;;;;;;5049775;28;19927;-53
2022/07/05 04:58:00;;;;;;;;;;;26.60;90.70;;;;;;5049663;28;19920;-51
2022/07/05 05:00:28;;;;;;;;;;;26.60;90.70;;;;;;5054394;28;20339;-55
2022/07/05 05:02:55;;;;;;;;;;;26.60;90.70;;;;;;5049968;28;19928;-56
2022/07/05 05:05:22;;;;;;;;;;;26.60;90.70;;;;;;5050989;28;19921;-51
2022/07/05 05:07:49;;;;;;;;;;;26.60;90.70;;;;;;5050127;28;19920;-56
2022/07/05 05:10:16;;;;;;;;;;;26.60;90.70;;;;;;5056518;28;19929;-56
2022/07/05 05:12:43;;;;;;;;;;;26.60;90.70;;;;;;5052867;28;19925;-55
2022/07/05 05:15:10;;;;;;;;;;;26.60;90.70;;;;;;5049295;28;20289;-56
2022/07/05 05:17:38;;;;;;;;;;;26.60;90.80;;;;;;5049000;28;20700;-55
2022/07/05 05:20:13;;;;;;;;;;;26.60;90.80;;;;;;5048799;28;20269;-54
2022/07/05 05:22:40;;;;;;;;;;;26.60;90.80;;;;;;5048329;28;19921;-53
2022/07/05 05:25:08;;;;;;;;;;;26.60;90.80;;;;;;5049953;28;19925;-55
2022/07/05 05:27:35;;;;;;;;;;;26.60;90.80;;;;;;5052199;28;20206;-55
2022/07/05 05:30:02;;;;;;;;;;;26.60;90.80;;;;;;5048841;28;20403;-55
2022/07/05 05:32:29;;;;;;;;;;;26.60;90.80;;;;;;5047549;28;19924;-56
2022/07/05 05:34:56;;;;;;;;;;;26.60;90.80;;;;;;5051999;28;19943;-56
2022/07/05 05:37:24;;;;;;;;;;;26.60;90.80;;;;;;5051483;28;20531;-53
2022/07/05 05:39:51;;;;;;;;;;;26.60;90.80;;;;;;5058094;28;19924;-52
2022/07/05 05:42:18;;;;;;;;;;;26.60;90.80;;;;;;5056238;28;19957;-54
2022/07/05 05:44:45;;;;;;;;;;;26.60;90.90;;;;;;5049579;28;19928;-53
2022/07/05 05:47:12;;;;;;;;;;;26.60;90.90;;;;;;5065421;28;19925;-57
2022/07/05 05:49:43;;;;;;;;;;;26.60;90.90;;;;;;5055572;28;19920;-55
2022/07/05 05:52:10;;;;;;;;;;;26.60;90.90;;;;;;5047974;28;19927;-53
2022/07/05 05:54:38;;;;;;;;;;;26.60;90.90;;;;;;5047725;28;19925;-54
2022/07/05 05:57:05;;;;;;;;;;;26.60;90.90;;;;;;5049178;28;19921;-57
2022/07/05 05:59:32;;;;;;;;;;;26.60;90.90;;;;;;5053974;28;19931;-53
2022/07/05 06:01:59;;;;;;;;;;;26.60;90.90;;;;;;5063206;28;19932;-52
2022/07/05 06:04:26;;;;;;;;;;;26.60;90.90;;;;;;5047733;28;20470;-54
2022/07/05 06:06:53;;;;;;;;;;;26.60;90.90;;;;;;5048177;28;19932;-54
2022/07/05 06:09:20;;;;;;;;;;;26.60;90.90;;;;;;5049013;28;19924;-53
2022/07/05 06:11:48;;;;;;;;;;;26.60;90.90;;;;;;5051194;28;19932;-53
2022/07/05 06:14:15;;;;;;;;;;;26.60;90.90;;;;;;5047784;28;20303;-56
2022/07/05 06:16:42;;;;;;;;;;;26.60;90.80;;;;;;5062704;28;19924;-56
2022/07/05 06:19:09;;;;;;;;;;;26.60;90.80;;;;;;5055447;28;20403;-53
2022/07/05 06:21:36;;;;;;;;;;;26.60;90.80;;;;;;5058077;28;19958;-57
2022/07/05 06:24:03;;;;;;;;;;;26.60;90.80;;;;;;5045731;28;19947;-57
2022/07/05 06:26:30;;;;;;;;;;;26.60;90.90;;;;;;5049774;28;19920;-51
2022/07/05 06:28:58;;;;;;;;;;;26.60;90.90;;;;;;5049663;28;19943;-55
2022/07/05 06:31:25;;;;;;;;;;;26.60;90.90;;;;;;5049903;28;20392;-56
2022/07/05 06:33:52;;;;;;;;;;;26.60;90.90;;;;;;5051606;28;19924;-55
2022/07/05 06:36:19;;;;;;;;;;;26.60;90.90;;;;;;5052198;28;20303;-56
2022/07/05 06:38:47;;;;;;;;;;;26.60;90.90;;;;;;5052804;28;19924;-57
2022/07/05 06:41:14;;;;;;;;;;;26.60;90.90;;;;;;5052889;28;19932;-55
2022/07/05 06:43:41;;;;;;;;;;;26.60;91.00;;;;;;5065912;28;19925;-53
2022/07/05 06:46:14;;;;;;;;;;;26.60;91.00;;;;;;5053360;28;19924;-55
2022/07/05 06:48:42;;;;;;;;;;;26.60;91.00;;;;;;5052034;28;19925;-55
2022/07/05 06:51:10;;;;;;;;;;;26.60;91.00;;;;;;5052099;28;19924;-54
2022/07/05 06:53:37;;;;;;;;;;;26.60;91.00;;;;;;5050903;28;19921;-53
2022/07/05 06:56:04;;;;;;;;;;;26.60;91.00;;;;;;5059583;28;19943;-58
2022/07/05 06:58:31;;;;;;;;;;;26.60;91.00;;;;;;5053501;28;20830;-54
2022/07/05 07:00:58;;;;;;;;;;;26.60;91.00;;;;;;5063588;28;19933;-53
2022/07/05 07:03:46;;;;;;;;;;;26.60;91.00;;;;;;5055456;28;20415;-55
2022/07/05 07:06:34;;;;;;;;;;;26.60;91.00;;;;;;5051392;28;19943;-55
2022/07/05 07:09:21;;;;;;;;;;;26.60;91.00;;;;;;5050774;28;19925;-53
2022/07/05 07:11:49;;;;;;;;;;;26.60;91.00;;;;;;5062509;28;19932;-56
2022/07/05 07:14:16;;;;;;;;;;;26.60;91.00;;;;;;5061112;28;19931;-50
2022/07/05 07:16:43;;;;;;;;;;;26.60;91.10;;;;;;5052328;28;19920;-53
2022/07/05 07:19:10;;;;;;;;;;;26.60;91.10;;;;;;5051016;28;20296;-55
2022/07/05 07:21:41;;;;;;;;;;;26.60;91.10;;;;;;5061336;28;19928;-52
2022/07/05 07:24:08;;;;;;;;;;;26.60;91.10;;;;;;5053406;28;19939;-54
2022/07/05 07:29:22;;;;;;;;;;;26.60;91.10;;;;;;5050985;28;19924;-53
2022/07/05 07:31:49;;;;;;;;;;;26.60;91.10;;;;;;5063086;28;19920;-56
2022/07/05 07:34:16;;;;;;;;;;;26.60;91.10;;;;;;5062439;28;19928;-53
2022/07/05 07:36:43;;;;;;;;;;;26.60;91.10;;;;;;5059968;28;19921;-57
2022/07/05 07:39:11;;;;;;;;;;;26.60;91.20;;;;;;5055669;28;19928;-49
2022/07/05 07:41:38;;;;;;;;;;;26.60;91.20;;;;;;5050322;28;20496;-54
2022/07/05 07:44:05;;;;;;;;;;;26.60;91.20;;;;;;5051813;28;19924;-51
2022/07/05 07:46:32;;;;;;;;;;;26.60;91.20;;;;;;5049953;28;19925;-54
2022/07/05 07:49:00;;;;;;;;;;;26.60;91.20;;;;;;5049475;28;19924;-58
2022/07/05 07:51:27;;;;;;;;;;;26.70;91.30;;;;;;5051954;28;19932;-52
2022/07/05 07:53:55;;;;;;;;;;;26.60;91.20;;;;;;5049295;28;19921;-54
2022/07/05 07:56:39;;;;;;;;;;;26.60;91.30;;;;;;5050902;28;19925;-55
2022/07/05 07:59:06;;;;;;;;;;;26.60;91.20;;;;;;5051445;28;19928;-56
2022/07/05 08:01:34;;;;;;;;;;;26.70;91.30;;;;;;5053542;28;19928;-56
2022/07/05 08:04:09;;;;;;;;;;;26.70;91.30;;;;;;5049780;28;19921;-51
2022/07/05 08:06:37;;;;;;;;;;;26.70;91.30;;;;;;5056963;28;19924;-50
2022/07/05 08:09:04;;;;;;;;;;;26.70;91.30;;;;;;5049340;28;19935;-56
2022/07/05 08:11:31;;;;;;;;;;;26.70;91.30;;;;;;5048946;28;20345;-56
2022/07/05 08:13:58;;;;;;;;;;;26.70;91.40;;;;;;5049450;28;19921;-57
2022/07/05 08:16:26;;;;;;;;;;;26.70;91.40;;;;;;5050036;28;20446;-55
2022/07/05 08:21:38;;;;;;;;;;;26.70;91.40;;;;;;5049670;28;19924;-56
2022/07/05 08:24:10;;;;;;;;;;;26.70;91.40;;;;;;5049376;28;19951;-51
2022/07/05 08:26:37;;;;;;;;;;;26.70;91.40;;;;;;5052628;28;19921;-53
2022/07/05 08:29:06;;;;;;;;;;;26.70;91.40;;;;;;5051032;28;19924;-54
2022/07/05 08:31:47;;;;;;;;;;;26.70;91.40;;;;;;5052374;28;20396;-52
2022/07/05 08:34:14;;;;;;;;;;;26.70;91.40;;;;;;5049942;28;19925;-54
2022/07/05 08:36:41;;;;;;;;;;;26.70;91.40;;;;;;5060288;28;20705;-53
2022/07/05 08:39:09;;;;;;;;;;;26.70;91.40;;;;;;5053222;28;19925;-53
2022/07/05 08:41:39;;;;;;;;;;;26.70;91.40;;;;;;5048949;28;20351;-52
2022/07/05 08:44:06;;;;;;;;;;;26.80;91.50;;;;;;5048330;28;19924;-57
2022/07/05 08:46:37;;;;;;;;;;;26.80;91.50;;;;;;5049612;28;19920;-53
2022/07/05 08:49:04;;;;;;;;;;;26.80;91.50;;;;;;5048227;28;19921;-56
2022/07/05 08:51:39;;;;;;;;;;;26.80;91.50;;;;;;5059350;28;19939;-54
2022/07/05 08:54:07;;;;;;;;;;;26.80;91.50;;;;;;5047735;28;20474;-52
2022/07/05 08:56:35;;;;;;;;;;;26.80;91.50;;;;;;5049375;28;19920;-56
2022/07/05 08:59:22;;;;;;;;;;;26.80;91.50;;;;;;5051418;28;19947;-52
2022/07/05 09:01:50;;;;;;;;;;;26.80;91.50;;;;;;5048748;28;19920;-55
2022/07/05 09:04:17;;;;;;;;;;;26.80;91.50;;;;;;5048006;28;19929;-54
2022/07/05 09:06:45;;;;;;;;;;;26.80;91.50;;;;;;5048514;28;19955;-50
2022/07/05 09:09:13;;;;;;;;;;;26.80;91.50;;;;;;5048016;28;19921;-53
2022/07/05 09:11:41;;;;;;;;;;;26.80;91.50;;;;;;5048650;28;19921;-51
2022/07/05 09:14:25;;;;;;;;;;;26.80;91.50;;;;;;5047785;28;19925;-53
2022/07/05 09:16:56;;;;;;;;;;;26.80;91.50;;;;;;5048507;28;20398;-54
2022/07/05 09:19:23;;;;;;;;;;;26.80;91.60;;;;;;5048978;28;19980;-53
2022/07/05 09:22:02;;;;;;;;;;;26.80;91.60;;;;;;5049413;28;19925;-55
2022/07/05 09:24:30;;;;;;;;;;;26.80;91.60;;;;;;5047586;28;19931;-57
2022/07/05 09:27:04;;;;;;;;;;;26.80;91.60;;;;;;5061471;28;20339;-55
2022/07/05 09:29:31;;;;;;;;;;;26.80;91.60;;;;;;5049287;28;19921;-54
2022/07/05 09:32:23;;;;;;;;;;;26.80;91.60;;;;;;5064808;28;19943;-53
2022/07/05 09:34:50;;;;;;;;;;;26.80;91.60;;;;;;5047527;28;19928;-55
2022/07/05 09:37:17;;;;;;;;;;;26.80;91.60;;;;;;5046996;28;20382;-52
2022/07/05 09:39:44;;;;;;;;;;;26.80;91.60;;;;;;5055991;28;19924;-55
2022/07/05 09:42:17;;;;;;;;;;;26.80;91.60;;;;;;5056946;28;19931;-53
2022/07/05 09:44:44;;;;;;;;;;;26.80;91.60;;;;;;5058481;28;20261;-56
2022/07/05 09:47:13;;;;;;;;;;;26.80;91.60;;;;;;5054851;28;19924;-56
2022/07/05 09:49:54;;;;;;;;;;;26.80;91.60;;;;;;5047495;28;19920;-54
2022/07/05 09:52:35;;;;;;;;;;;26.80;91.60;;;;;;5055058;28;19931;-58
2022/07/05 09:55:09;;;;;;;;;;;26.80;91.60;;;;;;5054530;28;19931;-54
2022/07/05 09:57:39;;;;;;;;;;;26.80;91.60;;;;;;5050073;28;19924;-57
2022/07/05 10:00:07;;;;;;;;;;;26.80;91.60;;;;;;5059085;28;19931;-54
2022/07/05 10:02:58;;;;;;;;;;;26.80;91.60;;;;;;5064164;28;19924;-56
2022/07/05 10:05:27;;;;;;;;;;;26.80;91.90;;;;;;5051332;28;19921;-53
2022/07/05 10:07:55;;;;;;;;;;;26.80;91.60;;;;;;5050130;28;19921;-53
2022/07/05 10:10:24;;;;;;;;;;;26.80;91.60;;;;;;5048452;28;19920;-54
2022/07/05 10:12:52;;;;;;;;;;;26.80;91.60;;;;;;5062192;28;20797;-52
2022/07/05 10:15:20;;;;;;;;;;;26.80;91.60;;;;;;5047891;28;19931;-54
2022/07/05 10:17:51;;;;;;;;;;;26.80;91.60;;;;;;5049386;28;19932;-53
2022/07/05 10:20:24;;;;;;;;;;;26.80;91.60;;;;;;5048459;28;19936;-53
2022/07/05 10:22:52;;;;;;;;;;;26.80;91.60;;;;;;5047113;28;19932;-57
2022/07/05 10:25:19;;;;;;;;;;;26.80;91.60;;;;;;5046964;28;19936;-55
2022/07/05 10:27:47;;;;;;;;;;;26.80;91.60;;;;;;5048979;28;19932;-54
2022/07/05 10:30:14;;;;;;;;;;;26.80;91.60;;;;;;5047147;28;19925;-50
2022/07/05 10:32:42;;;;;;;;;;;26.80;91.60;;;;;;5046909;28;19936;-55
2022/07/05 10:35:10;;;;;;;;;;;26.80;91.60;;;;;;5047582;28;19954;-54
2022/07/05 10:37:38;;;;;;;;;;;26.80;91.60;;;;;;5047453;28;20857;-52
2022/07/05 10:40:05;;;;;;;;;;;26.80;91.60;;;;;;5044825;28;19924;-51
2022/07/05 10:42:36;;;;;;;;;;;26.80;91.60;;;;;;5048553;28;19925;-55
2022/07/05 10:45:21;;;;;;;;;;;26.80;91.60;;;;;;5076968;28;19936;-56
2022/07/05 10:48:06;;;;;;;;;;;26.80;91.60;;;;;;5061999;28;20616;-53
2022/07/05 10:50:48;;;;;;;;;;;26.80;91.60;;;;;;5048584;28;19921;-52
2022/07/05 10:53:20;;;;;;;;;;;26.80;91.60;;;;;;5047349;28;19924;-57
2022/07/05 10:56:11;;;;;;;;;;;26.80;91.60;;;;;;5062220;28;19924;-54
2022/07/05 10:58:39;;;;;;;;;;;26.80;91.60;;;;;;5047419;28;20408;-54
2022/07/05 11:01:12;;;;;;;;;;;26.80;91.60;;;;;;5051540;28;19924;-52
2022/07/05 11:03:39;;;;;;;;;;;26.80;91.60;;;;;;5062056;28;19921;-52
2022/07/05 11:06:08;;;;;;;;;;;26.90;91.60;;;;;;5047055;28;19941;-57
2022/07/05 11:09:08;;;;;;;;;;;26.90;91.60;;;;;;5048035;28;19931;-56
2022/07/05 11:11:35;;;;;;;;;;;26.80;91.60;;;;;;5042169;28;20007;-54
2022/07/05 11:14:19;;;;;;;;;;;26.80;91.60;;;;;;5046676;28;19925;-54
2022/07/05 11:16:47;;;;;;;;;;;26.80;91.60;;;;;;5048049;28;19921;-54
2022/07/05 11:19:17;;;;;;;;;;;26.80;91.60;;;;;;5048408;28;19935;-54
2022/07/05 11:22:10;;;;;;;;;;;26.80;91.60;;;;;;5050292;28;19925;-54
2022/07/05 11:24:38;;;;;;;;;;;26.80;91.60;;;;;;5048655;28;19921;-54
2022/07/05 11:27:11;;;;;;;;;;;26.80;91.60;;;;;;5068752;28;19924;-53
2022/07/05 11:29:45;;;;;;;;;;;26.80;91.60;;;;;;5065018;28;19929;-53
2022/07/05 11:32:14;;;;;;;;;;;26.80;91.60;;;;;;5057476;28;19928;-54
2022/07/05 11:34:46;;;;;;;;;;;26.80;91.60;;;;;;5050197;28;20430;-55
2022/07/05 11:37:13;;;;;;;;;;;26.80;91.60;;;;;;5049534;28;20371;-56
2022/07/05 11:40:07;;;;;;;;;;;26.80;91.60;;;;;;5050087;28;19927;-53
2022/07/05 11:42:42;;;;;;;;;;;26.80;91.60;;;;;;5062308;28;20309;-53
2022/07/05 11:45:09;;;;;;;;;;;26.80;91.60;;;;;;5061778;28;19928;-51
2022/07/05 11:47:36;;;;;;;;;;;26.90;91.60;;;;;;5053971;28;20406;-53
2022/07/05 11:50:09;;;;;;;;;;;26.90;91.60;;;;;;5051140;28;19929;-54
2022/07/05 11:52:37;;;;;;;;;;;26.90;91.60;;;;;;5050034;28;19925;-55
2022/07/05 11:55:06;;;;;;;;;;;26.90;91.60;;;;;;5052429;28;19921;-54
2022/07/05 11:57:33;;;;;;;;;;;26.80;91.60;;;;;;5065860;28;19921;-53
2022/07/05 12:00:01;;;;;;;;;;;26.90;91.60;;;;;;5056148;28;19920;-51
2022/07/05 12:02:43;;;;;;;;;;;26.90;91.60;;;;;;5057187;28;19920;-49
2022/07/05 12:05:15;;;;;;;;;;;26.80;91.60;;;;;;5047640;28;19925;-55
2022/07/05 12:07:48;;;;;;;;;;;26.80;91.60;;;;;;5059649;28;19932;-56
2022/07/05 12:13:20;;;;;;;;;;;26.90;91.60;;;;;;5050126;28;19955;-55
2022/07/05 12:15:48;;;;;;;;;;;26.90;91.60;;;;;;5058376;28;19932;-54
2022/07/05 12:18:15;;;;;;;;;;;26.80;91.60;;;;;;5050005;28;19925;-55
2022/07/05 12:20:43;;;;;;;;;;;26.80;91.60;;;;;;5049016;28;19921;-52
2022/07/05 12:23:11;;;;;;;;;;;26.90;91.60;;;;;;5048730;28;19925;-53
2022/07/05 12:25:38;;;;;;;;;;;26.90;91.60;;;;;;5051065;28;20393;-51
2022/07/05 12:28:09;;;;;;;;;;;26.90;91.60;;;;;;5049387;28;19944;-54
2022/07/05 12:30:36;;;;;;;;;;;26.80;91.60;;;;;;5065654;28;19947;-57
2022/07/05 12:33:04;;;;;;;;;;;26.80;91.60;;;;;;5066000;28;19920;-57
2022/07/05 12:35:44;;;;;;;;;;;26.90;91.60;;;;;;5052706;28;19932;-55
2022/07/05 12:38:14;;;;;;;;;;;26.90;91.60;;;;;;5048760;28;19924;-56
2022/07/05 12:40:43;;;;;;;;;;;26.90;91.60;;;;;;5066743;28;20273;-54
2022/07/05 12:43:11;;;;;;;;;;;26.90;91.60;;;;;;5048940;28;19925;-51
2022/07/05 12:45:39;;;;;;;;;;;26.90;91.70;;;;;;5053940;28;19935;-54
2022/07/05 12:48:07;;;;;;;;;;;26.90;91.60;;;;;;5068195;28;19958;-54
2022/07/05 12:50:45;;;;;;;;;;;26.90;91.60;;;;;;5049823;28;19920;-53
2022/07/05 12:59:28;;;;;;;;;;;26.90;91.60;;;;;;5058474;28;19928;-53
2022/07/05 13:01:55;;;;;;;;;;;27.00;91.70;;;;;;5062067;28;19928;-56
2022/07/05 13:04:23;;;;;;;;;;;27.00;91.60;;;;;;5053726;28;19927;-56
2022/07/05 13:06:57;;;;;;;;;;;27.00;91.70;;;;;;5053030;28;19932;-53
2022/07/05 13:09:33;;;;;;;;;;;27.00;91.70;;;;;;5051515;28;19932;-56
2022/07/05 13:12:13;;;;;;;;;;;27.00;91.60;;;;;;5058897;28;20004;-54
2022/07/05 13:14:41;;;;;;;;;;;27.00;91.70;;;;;;5051334;28;19927;-54
2022/07/05 13:17:09;;;;;;;;;;;27.00;91.70;;;;;;5063540;28;20469;-52
2022/07/05 13:19:38;;;;;;;;;;;27.00;91.60;;;;;;5065674;28;19925;-52
2022/07/05 13:22:06;;;;;;;;;;;27.10;91.70;;;;;;5050272;28;19932;-52
2022/07/05 13:24:33;;;;;;;;;;;27.10;91.60;;;;;;5048234;28;19939;-55
2022/07/05 13:27:01;;;;;;;;;;;27.20;91.60;;;;;;5050706;28;19921;-56
2022/07/05 13:29:28;;;;;;;;;;;27.20;91.60;;;;;;5049059;28;19925;-53
2022/07/05 13:31:55;;;;;;;;;;;27.20;91.60;;;;;;5049716;28;19921;-58
2022/07/05 13:34:28;;;;;;;;;;;27.20;91.60;;;;;;5068322;28;19931;-55
2022/07/05 13:36:56;;;;;;;;;;;27.30;91.50;;;;;;5051322;28;19931;-56
2022/07/05 13:39:23;;;;;;;;;;;27.20;91.50;;;;;;5061351;28;19924;-54
2022/07/05 13:41:56;;;;;;;;;;;27.20;91.60;;;;;;5049173;28;19924;-52
2022/07/05 13:44:24;;;;;;;;;;;27.20;91.60;;;;;;5047923;28;19925;-57
2022/07/05 13:46:51;;;;;;;;;;;27.30;91.60;;;;;;5052372;28;19929;-55
2022/07/05 13:49:19;;;;;;;;;;;27.30;91.60;;;;;;5047814;28;20435;-56
2022/07/05 13:51:46;;;;;;;;;;;27.30;91.60;;;;;;5058581;28;19924;-58
2022/07/05 13:54:14;;;;;;;;;;;27.20;91.60;;;;;;5053508;28;19940;-55
2022/07/05 13:56:41;;;;;;;;;;;27.20;91.70;;;;;;5051370;28;20494;-55
2022/07/05 13:59:08;;;;;;;;;;;27.20;91.70;;;;;;5048544;28;19932;-53
2022/07/05 14:01:35;;;;;;;;;;;27.20;91.70;;;;;;5058352;28;19932;-55
2022/07/05 14:04:03;;;;;;;;;;;27.10;91.70;;;;;;5047057;28;19932;-51
2022/07/05 14:06:30;;;;;;;;;;;27.20;91.80;;;;;;5049031;28;19924;-57
2022/07/05 14:08:58;;;;;;;;;;;27.20;91.80;;;;;;5047804;28;19921;-53
2022/07/05 14:11:26;;;;;;;;;;;27.30;91.70;;;;;;5052420;28;20407;-55
2022/07/05 14:13:53;;;;;;;;;;;27.30;91.60;;;;;;5046768;28;20571;-55
2022/07/05 14:16:21;;;;;;;;;;;27.40;91.50;;;;;;5053216;28;20376;-57
2022/07/05 14:18:49;;;;;;;;;;;27.50;91.40;;;;;;5047147;28;20307;-56
2022/07/05 14:21:17;;;;;;;;;;;27.60;91.30;;;;;;5048778;28;19928;-54
2022/07/05 14:23:46;;;;;;;;;;;27.60;91.20;;;;;;5047603;28;20380;-54
2022/07/05 14:26:14;;;;;;;;;;;27.60;91.30;;;;;;5047481;28;19921;-52
2022/07/05 14:28:41;;;;;;;;;;;27.60;91.20;;;;;;5047640;28;20487;-55
2022/07/05 14:31:08;;;;;;;;;;;27.60;91.20;;;;;;5057278;28;19925;-54
2022/07/05 14:33:37;;;;;;;;;;;27.70;91.20;;;;;;5045619;28;19944;-53
2022/07/05 14:36:04;;;;;;;;;;;27.60;91.20;;;;;;5056991;28;19921;-53
2022/07/05 14:38:31;;;;;;;;;;;27.50;91.30;;;;;;5071925;28;19928;-57
2022/07/05 14:40:58;;;;;;;;;;;27.60;91.30;;;;;;5052970;28;19927;-54
2022/07/05 14:43:26;;;;;;;;;;;27.60;91.30;;;;;;5047515;28;19925;-57